sensor_id;sensor_type;location;lat;lon;timestamp;P1;durP1;ratioP1;P2;durP2;ratioP2
69754;SDS011;57023;52.218;5.158;2023-08-21T00:00:45;10.13;;;4.45;;
69754;SDS011;57023;52.218;5.158;2023-08-21T00:03:10;10.20;;;4.43;;
69754;SDS011;57023;52.218;5.158;2023-08-21T00:05:36;8.98;;;4.47;;
69754;SDS011;57023;52.218;5.158;2023-08-21T00:08:01;6.70;;;4.05;;
69754;SDS011;57023;52.218;5.158;2023-08-21T00:10:27;7.55;;;3.97;;
69754;SDS011;57023;52.218;5.158;2023-08-21T00:12:52;8.35;;;3.72;;
69754;SDS011;57023;52.218;5.158;2023-08-21T00:15:18;9.40;;;3.67;;
69754;SDS011;57023;52.218;5.158;2023-08-21T00:17:44;8.18;;;3.67;;
69754;SDS011;57023;52.218;5.158;2023-08-21T00:20:12;8.63;;;3.67;;
69754;SDS011;57023;52.218;5.158;2023-08-21T00:22:37;8.88;;;3.88;;
69754;SDS011;57023;52.218;5.158;2023-08-21T00:25:03;8.70;;;3.75;;
69754;SDS011;57023;52.218;5.158;2023-08-21T00:27:29;8.27;;;3.70;;
69754;SDS011;57023;52.218;5.158;2023-08-21T00:29:54;6.75;;;3.63;;
69754;SDS011;57023;52.218;5.158;2023-08-21T00:32:20;7.63;;;3.63;;
69754;SDS011;57023;52.218;5.158;2023-08-21T00:34:45;7.95;;;3.70;;
69754;SDS011;57023;52.218;5.158;2023-08-21T00:37:10;9.15;;;3.63;;
69754;SDS011;57023;52.218;5.158;2023-08-21T00:39:36;7.07;;;3.83;;
69754;SDS011;57023;52.218;5.158;2023-08-21T00:42:01;7.43;;;4.05;;
69754;SDS011;57023;52.218;5.158;2023-08-21T00:44:26;8.35;;;3.85;;
69754;SDS011;57023;52.218;5.158;2023-08-21T00:46:52;7.20;;;3.92;;
69754;SDS011;57023;52.218;5.158;2023-08-21T00:49:17;8.80;;;4.00;;
69754;SDS011;57023;52.218;5.158;2023-08-21T00:51:43;7.55;;;4.18;;
69754;SDS011;57023;52.218;5.158;2023-08-21T00:54:09;9.82;;;3.83;;
69754;SDS011;57023;52.218;5.158;2023-08-21T00:56:34;10.88;;;3.70;;
69754;SDS011;57023;52.218;5.158;2023-08-21T00:59:00;7.38;;;3.28;;
69754;SDS011;57023;52.218;5.158;2023-08-21T01:01:25;5.72;;;3.20;;
69754;SDS011;57023;52.218;5.158;2023-08-21T01:03:51;5.97;;;3.22;;
69754;SDS011;57023;52.218;5.158;2023-08-21T01:06:18;7.22;;;3.00;;
69754;SDS011;57023;52.218;5.158;2023-08-21T01:08:47;6.97;;;3.42;;
69754;SDS011;57023;52.218;5.158;2023-08-21T01:11:18;7.13;;;3.40;;
69754;SDS011;57023;52.218;5.158;2023-08-21T01:16:32;8.93;;;3.40;;
69754;SDS011;57023;52.218;5.158;2023-08-21T01:18:58;8.90;;;3.47;;
69754;SDS011;57023;52.218;5.158;2023-08-21T01:21:24;10.95;;;3.42;;
69754;SDS011;57023;52.218;5.158;2023-08-21T01:23:50;9.50;;;3.75;;
69754;SDS011;57023;52.218;5.158;2023-08-21T01:26:15;8.15;;;3.47;;
69754;SDS011;57023;52.218;5.158;2023-08-21T01:28:41;7.43;;;3.25;;
69754;SDS011;57023;52.218;5.158;2023-08-21T01:31:08;8.40;;;3.47;;
69754;SDS011;57023;52.218;5.158;2023-08-21T01:33:35;9.38;;;3.50;;
69754;SDS011;57023;52.218;5.158;2023-08-21T01:36:04;7.85;;;3.40;;
69754;SDS011;57023;52.218;5.158;2023-08-21T01:38:33;10.45;;;4.15;;
69754;SDS011;57023;52.218;5.158;2023-08-21T01:41:00;6.80;;;3.70;;
69754;SDS011;57023;52.218;5.158;2023-08-21T01:43:25;7.55;;;3.85;;
69754;SDS011;57023;52.218;5.158;2023-08-21T01:45:50;8.40;;;3.70;;
69754;SDS011;57023;52.218;5.158;2023-08-21T01:48:16;8.88;;;3.53;;
69754;SDS011;57023;52.218;5.158;2023-08-21T01:50:41;6.25;;;3.20;;
69754;SDS011;57023;52.218;5.158;2023-08-21T01:53:06;8.93;;;3.47;;
69754;SDS011;57023;52.218;5.158;2023-08-21T01:55:32;7.38;;;3.45;;
69754;SDS011;57023;52.218;5.158;2023-08-21T01:57:57;6.97;;;3.40;;
69754;SDS011;57023;52.218;5.158;2023-08-21T02:00:22;8.35;;;3.80;;
69754;SDS011;57023;52.218;5.158;2023-08-21T02:02:48;6.82;;;3.70;;
69754;SDS011;57023;52.218;5.158;2023-08-21T02:05:13;7.15;;;3.30;;
69754;SDS011;57023;52.218;5.158;2023-08-21T02:07:38;7.63;;;3.80;;
69754;SDS011;57023;52.218;5.158;2023-08-21T02:10:04;8.60;;;3.60;;
69754;SDS011;57023;52.218;5.158;2023-08-21T02:12:29;7.78;;;3.40;;
69754;SDS011;57023;52.218;5.158;2023-08-21T02:14:55;6.80;;;3.40;;
69754;SDS011;57023;52.218;5.158;2023-08-21T02:17:20;10.40;;;3.72;;
69754;SDS011;57023;52.218;5.158;2023-08-21T02:19:45;8.73;;;3.17;;
69754;SDS011;57023;52.218;5.158;2023-08-21T02:22:11;8.10;;;3.58;;
69754;SDS011;57023;52.218;5.158;2023-08-21T02:24:36;7.03;;;3.70;;
69754;SDS011;57023;52.218;5.158;2023-08-21T02:27:01;9.95;;;3.75;;
69754;SDS011;57023;52.218;5.158;2023-08-21T02:29:28;8.57;;;3.83;;
69754;SDS011;57023;52.218;5.158;2023-08-21T02:31:53;7.07;;;3.53;;
69754;SDS011;57023;52.218;5.158;2023-08-21T02:34:18;9.73;;;3.40;;
69754;SDS011;57023;52.218;5.158;2023-08-21T02:36:44;8.75;;;3.78;;
69754;SDS011;57023;52.218;5.158;2023-08-21T02:39:09;9.82;;;3.80;;
69754;SDS011;57023;52.218;5.158;2023-08-21T02:41:34;8.23;;;3.60;;
69754;SDS011;57023;52.218;5.158;2023-08-21T02:44:00;7.15;;;3.50;;
69754;SDS011;57023;52.218;5.158;2023-08-21T02:46:25;7.07;;;3.35;;
69754;SDS011;57023;52.218;5.158;2023-08-21T02:48:50;7.88;;;3.70;;
69754;SDS011;57023;52.218;5.158;2023-08-21T02:51:16;8.40;;;3.53;;
69754;SDS011;57023;52.218;5.158;2023-08-21T02:53:41;7.25;;;3.42;;
69754;SDS011;57023;52.218;5.158;2023-08-21T02:56:06;8.45;;;3.67;;
69754;SDS011;57023;52.218;5.158;2023-08-21T02:58:32;7.65;;;3.40;;
69754;SDS011;57023;52.218;5.158;2023-08-21T03:00:58;6.68;;;3.67;;
69754;SDS011;57023;52.218;5.158;2023-08-21T03:03:23;7.25;;;3.70;;
69754;SDS011;57023;52.218;5.158;2023-08-21T03:05:48;7.13;;;3.70;;
69754;SDS011;57023;52.218;5.158;2023-08-21T03:08:14;9.02;;;3.50;;
69754;SDS011;57023;52.218;5.158;2023-08-21T03:10:39;7.18;;;3.45;;
69754;SDS011;57023;52.218;5.158;2023-08-21T03:13:04;6.97;;;3.55;;
69754;SDS011;57023;52.218;5.158;2023-08-21T03:15:30;6.97;;;3.45;;
69754;SDS011;57023;52.218;5.158;2023-08-21T03:17:55;8.13;;;3.45;;
69754;SDS011;57023;52.218;5.158;2023-08-21T03:20:20;7.13;;;3.80;;
69754;SDS011;57023;52.218;5.158;2023-08-21T03:22:46;7.90;;;3.33;;
69754;SDS011;57023;52.218;5.158;2023-08-21T03:25:11;6.93;;;3.28;;
69754;SDS011;57023;52.218;5.158;2023-08-21T03:27:37;6.60;;;3.55;;
69754;SDS011;57023;52.218;5.158;2023-08-21T03:30:05;7.13;;;3.65;;
69754;SDS011;57023;52.218;5.158;2023-08-21T03:32:31;8.70;;;3.60;;
69754;SDS011;57023;52.218;5.158;2023-08-21T03:34:57;7.65;;;3.47;;
69754;SDS011;57023;52.218;5.158;2023-08-21T03:37:22;8.00;;;3.70;;
69754;SDS011;57023;52.218;5.158;2023-08-21T03:39:48;8.73;;;3.60;;
69754;SDS011;57023;52.218;5.158;2023-08-21T03:42:13;8.60;;;3.70;;
69754;SDS011;57023;52.218;5.158;2023-08-21T03:44:39;9.00;;;3.88;;
69754;SDS011;57023;52.218;5.158;2023-08-21T03:47:04;9.63;;;3.60;;
69754;SDS011;57023;52.218;5.158;2023-08-21T03:49:29;8.80;;;3.65;;
69754;SDS011;57023;52.218;5.158;2023-08-21T03:51:57;7.53;;;3.63;;
69754;SDS011;57023;52.218;5.158;2023-08-21T03:54:23;6.80;;;3.65;;
69754;SDS011;57023;52.218;5.158;2023-08-21T03:56:48;12.18;;;3.90;;
69754;SDS011;57023;52.218;5.158;2023-08-21T03:59:13;9.10;;;3.88;;
69754;SDS011;57023;52.218;5.158;2023-08-21T04:01:39;8.32;;;3.50;;
69754;SDS011;57023;52.218;5.158;2023-08-21T04:04:04;10.15;;;3.78;;
69754;SDS011;57023;52.218;5.158;2023-08-21T04:06:29;8.30;;;3.58;;
69754;SDS011;57023;52.218;5.158;2023-08-21T04:08:55;6.82;;;4.03;;
69754;SDS011;57023;52.218;5.158;2023-08-21T04:11:20;9.45;;;3.80;;
69754;SDS011;57023;52.218;5.158;2023-08-21T04:13:45;8.07;;;3.72;;
69754;SDS011;57023;52.218;5.158;2023-08-21T04:16:11;8.23;;;3.65;;
69754;SDS011;57023;52.218;5.158;2023-08-21T04:18:37;9.38;;;3.72;;
69754;SDS011;57023;52.218;5.158;2023-08-21T04:21:03;8.73;;;4.38;;
69754;SDS011;57023;52.218;5.158;2023-08-21T04:23:29;7.82;;;3.40;;
69754;SDS011;57023;52.218;5.158;2023-08-21T04:25:59;8.60;;;3.60;;
69754;SDS011;57023;52.218;5.158;2023-08-21T04:28:26;6.85;;;3.58;;
69754;SDS011;57023;52.218;5.158;2023-08-21T04:30:51;7.50;;;3.55;;
69754;SDS011;57023;52.218;5.158;2023-08-21T04:33:20;7.32;;;3.60;;
69754;SDS011;57023;52.218;5.158;2023-08-21T04:35:45;8.65;;;3.97;;
69754;SDS011;57023;52.218;5.158;2023-08-21T04:38:10;6.47;;;3.83;;
69754;SDS011;57023;52.218;5.158;2023-08-21T04:40:35;8.32;;;3.70;;
69754;SDS011;57023;52.218;5.158;2023-08-21T04:43:01;7.70;;;3.83;;
69754;SDS011;57023;52.218;5.158;2023-08-21T04:45:26;6.85;;;3.85;;
69754;SDS011;57023;52.218;5.158;2023-08-21T04:47:52;13.05;;;4.20;;
69754;SDS011;57023;52.218;5.158;2023-08-21T04:50:17;10.15;;;4.03;;
69754;SDS011;57023;52.218;5.158;2023-08-21T04:52:42;9.30;;;3.85;;
69754;SDS011;57023;52.218;5.158;2023-08-21T04:55:08;9.98;;;3.70;;
69754;SDS011;57023;52.218;5.158;2023-08-21T04:57:33;8.68;;;4.20;;
69754;SDS011;57023;52.218;5.158;2023-08-21T04:59:59;11.40;;;4.40;;
69754;SDS011;57023;52.218;5.158;2023-08-21T05:02:24;10.35;;;3.90;;
69754;SDS011;57023;52.218;5.158;2023-08-21T05:04:49;8.88;;;3.97;;
69754;SDS011;57023;52.218;5.158;2023-08-21T05:07:15;10.02;;;4.10;;
69754;SDS011;57023;52.218;5.158;2023-08-21T05:09:40;8.60;;;3.88;;
69754;SDS011;57023;52.218;5.158;2023-08-21T05:12:07;9.65;;;4.13;;
69754;SDS011;57023;52.218;5.158;2023-08-21T05:14:32;10.07;;;4.05;;
69754;SDS011;57023;52.218;5.158;2023-08-21T05:16:57;8.48;;;3.95;;
69754;SDS011;57023;52.218;5.158;2023-08-21T05:19:23;9.13;;;3.80;;
69754;SDS011;57023;52.218;5.158;2023-08-21T05:21:49;8.32;;;4.20;;
69754;SDS011;57023;52.218;5.158;2023-08-21T05:24:15;10.00;;;4.30;;
69754;SDS011;57023;52.218;5.158;2023-08-21T05:26:41;9.27;;;4.15;;
69754;SDS011;57023;52.218;5.158;2023-08-21T05:29:06;7.25;;;4.50;;
69754;SDS011;57023;52.218;5.158;2023-08-21T05:31:31;7.80;;;4.10;;
69754;SDS011;57023;52.218;5.158;2023-08-21T05:33:57;8.48;;;4.22;;
69754;SDS011;57023;52.218;5.158;2023-08-21T05:36:22;10.57;;;4.72;;
69754;SDS011;57023;52.218;5.158;2023-08-21T05:38:48;10.93;;;4.82;;
69754;SDS011;57023;52.218;5.158;2023-08-21T05:41:16;8.25;;;4.20;;
69754;SDS011;57023;52.218;5.158;2023-08-21T05:43:41;9.90;;;4.38;;
69754;SDS011;57023;52.218;5.158;2023-08-21T05:46:07;6.68;;;4.00;;
69754;SDS011;57023;52.218;5.158;2023-08-21T05:48:32;7.22;;;4.28;;
69754;SDS011;57023;52.218;5.158;2023-08-21T05:50:58;9.48;;;4.72;;
69754;SDS011;57023;52.218;5.158;2023-08-21T05:53:23;7.65;;;4.40;;
69754;SDS011;57023;52.218;5.158;2023-08-21T05:55:49;8.27;;;4.32;;
69754;SDS011;57023;52.218;5.158;2023-08-21T05:58:14;12.38;;;4.93;;
69754;SDS011;57023;52.218;5.158;2023-08-21T06:00:40;9.52;;;4.50;;
69754;SDS011;57023;52.218;5.158;2023-08-21T06:03:05;7.95;;;4.53;;
69754;SDS011;57023;52.218;5.158;2023-08-21T06:05:30;8.65;;;4.65;;
69754;SDS011;57023;52.218;5.158;2023-08-21T06:07:56;11.95;;;4.60;;
69754;SDS011;57023;52.218;5.158;2023-08-21T06:10:21;12.07;;;4.90;;
69754;SDS011;57023;52.218;5.158;2023-08-21T06:12:46;7.50;;;4.28;;
69754;SDS011;57023;52.218;5.158;2023-08-21T06:15:13;10.03;;;4.70;;
69754;SDS011;57023;52.218;5.158;2023-08-21T06:17:38;9.73;;;4.63;;
69754;SDS011;57023;52.218;5.158;2023-08-21T06:20:04;11.75;;;4.85;;
69754;SDS011;57023;52.218;5.158;2023-08-21T06:22:31;15.30;;;5.00;;
69754;SDS011;57023;52.218;5.158;2023-08-21T06:24:57;9.30;;;4.90;;
69754;SDS011;57023;52.218;5.158;2023-08-21T06:27:22;9.77;;;4.60;;
69754;SDS011;57023;52.218;5.158;2023-08-21T06:29:47;11.38;;;4.70;;
69754;SDS011;57023;52.218;5.158;2023-08-21T06:32:13;9.73;;;4.38;;
69754;SDS011;57023;52.218;5.158;2023-08-21T06:34:38;13.68;;;4.75;;
69754;SDS011;57023;52.218;5.158;2023-08-21T06:37:03;11.07;;;4.68;;
69754;SDS011;57023;52.218;5.158;2023-08-21T06:39:29;10.00;;;4.15;;
69754;SDS011;57023;52.218;5.158;2023-08-21T06:41:54;10.63;;;4.00;;
69754;SDS011;57023;52.218;5.158;2023-08-21T06:44:19;9.85;;;3.65;;
69754;SDS011;57023;52.218;5.158;2023-08-21T06:46:45;8.57;;;3.88;;
69754;SDS011;57023;52.218;5.158;2023-08-21T06:49:10;10.60;;;3.80;;
69754;SDS011;57023;52.218;5.158;2023-08-21T06:51:35;8.23;;;3.70;;
69754;SDS011;57023;52.218;5.158;2023-08-21T06:54:01;7.35;;;4.05;;
69754;SDS011;57023;52.218;5.158;2023-08-21T06:56:26;9.27;;;3.38;;
69754;SDS011;57023;52.218;5.158;2023-08-21T06:58:52;7.05;;;3.60;;
69754;SDS011;57023;52.218;5.158;2023-08-21T07:01:17;9.30;;;3.63;;
69754;SDS011;57023;52.218;5.158;2023-08-21T07:03:42;10.07;;;3.42;;
69754;SDS011;57023;52.218;5.158;2023-08-21T07:06:08;9.13;;;3.35;;
69754;SDS011;57023;52.218;5.158;2023-08-21T07:08:33;6.75;;;3.10;;
69754;SDS011;57023;52.218;5.158;2023-08-21T07:11:01;7.93;;;3.75;;
69754;SDS011;57023;52.218;5.158;2023-08-21T07:13:27;8.52;;;3.03;;
69754;SDS011;57023;52.218;5.158;2023-08-21T07:15:53;8.77;;;3.08;;
69754;SDS011;57023;52.218;5.158;2023-08-21T07:18:20;9.02;;;3.28;;
69754;SDS011;57023;52.218;5.158;2023-08-21T07:20:45;7.40;;;3.10;;
69754;SDS011;57023;52.218;5.158;2023-08-21T07:23:10;8.80;;;3.20;;
69754;SDS011;57023;52.218;5.158;2023-08-21T07:25:35;7.70;;;3.15;;
69754;SDS011;57023;52.218;5.158;2023-08-21T07:28:01;9.50;;;3.20;;
69754;SDS011;57023;52.218;5.158;2023-08-21T07:30:27;6.38;;;2.80;;
69754;SDS011;57023;52.218;5.158;2023-08-21T07:32:52;8.02;;;2.70;;
69754;SDS011;57023;52.218;5.158;2023-08-21T07:35:18;12.35;;;3.10;;
69754;SDS011;57023;52.218;5.158;2023-08-21T07:37:43;8.45;;;2.72;;
69754;SDS011;57023;52.218;5.158;2023-08-21T07:40:09;7.78;;;2.65;;
69754;SDS011;57023;52.218;5.158;2023-08-21T07:42:35;8.40;;;2.65;;
69754;SDS011;57023;52.218;5.158;2023-08-21T07:45:00;8.95;;;2.78;;
69754;SDS011;57023;52.218;5.158;2023-08-21T07:47:29;7.50;;;2.60;;
69754;SDS011;57023;52.218;5.158;2023-08-21T07:49:54;5.60;;;2.53;;
69754;SDS011;57023;52.218;5.158;2023-08-21T07:52:21;7.30;;;2.63;;
69754;SDS011;57023;52.218;5.158;2023-08-21T07:54:47;9.07;;;2.83;;
69754;SDS011;57023;52.218;5.158;2023-08-21T07:57:16;7.47;;;3.08;;
69754;SDS011;57023;52.218;5.158;2023-08-21T07:59:42;7.55;;;3.00;;
69754;SDS011;57023;52.218;5.158;2023-08-21T08:02:08;8.27;;;2.83;;
69754;SDS011;57023;52.218;5.158;2023-08-21T08:04:33;11.53;;;2.97;;
69754;SDS011;57023;52.218;5.158;2023-08-21T08:06:59;6.70;;;2.67;;
69754;SDS011;57023;52.218;5.158;2023-08-21T08:09:24;8.13;;;2.93;;
69754;SDS011;57023;52.218;5.158;2023-08-21T08:11:50;8.05;;;3.00;;
69754;SDS011;57023;52.218;5.158;2023-08-21T08:14:15;11.90;;;3.30;;
69754;SDS011;57023;52.218;5.158;2023-08-21T08:16:40;6.90;;;2.47;;
69754;SDS011;57023;52.218;5.158;2023-08-21T08:19:06;6.87;;;2.80;;
69754;SDS011;57023;52.218;5.158;2023-08-21T08:21:32;10.63;;;2.50;;
69754;SDS011;57023;52.218;5.158;2023-08-21T08:23:58;6.15;;;2.58;;
69754;SDS011;57023;52.218;5.158;2023-08-21T08:26:24;7.60;;;2.50;;
69754;SDS011;57023;52.218;5.158;2023-08-21T08:28:49;7.07;;;2.50;;
69754;SDS011;57023;52.218;5.158;2023-08-21T08:31:17;8.23;;;2.70;;
69754;SDS011;57023;52.218;5.158;2023-08-21T08:33:43;7.07;;;2.50;;
69754;SDS011;57023;52.218;5.158;2023-08-21T08:36:09;7.20;;;2.60;;
69754;SDS011;57023;52.218;5.158;2023-08-21T08:38:34;7.33;;;2.57;;
69754;SDS011;57023;52.218;5.158;2023-08-21T08:41:00;6.73;;;2.67;;
69754;SDS011;57023;52.218;5.158;2023-08-21T08:43:27;7.22;;;2.70;;
69754;SDS011;57023;52.218;5.158;2023-08-21T08:45:52;4.93;;;2.40;;
69754;SDS011;57023;52.218;5.158;2023-08-21T08:48:20;8.43;;;2.90;;
69754;SDS011;57023;52.218;5.158;2023-08-21T08:50:46;6.87;;;2.60;;
69754;SDS011;57023;52.218;5.158;2023-08-21T08:55:38;7.73;;;2.67;;
69754;SDS011;57023;52.218;5.158;2023-08-21T08:58:03;7.73;;;2.70;;
69754;SDS011;57023;52.218;5.158;2023-08-21T09:02:55;9.07;;;2.67;;
69754;SDS011;57023;52.218;5.158;2023-08-21T09:05:21;8.47;;;2.73;;
69754;SDS011;57023;52.218;5.158;2023-08-21T09:07:46;6.43;;;2.80;;
69754;SDS011;57023;52.218;5.158;2023-08-21T09:10:27;8.82;;;3.00;;
69754;SDS011;57023;52.218;5.158;2023-08-21T09:12:52;9.73;;;2.80;;
69754;SDS011;57023;52.218;5.158;2023-08-21T09:15:18;4.57;;;2.30;;
69754;SDS011;57023;52.218;5.158;2023-08-21T09:17:43;6.47;;;2.60;;
69754;SDS011;57023;52.218;5.158;2023-08-21T09:20:18;8.82;;;2.95;;
69754;SDS011;57023;52.218;5.158;2023-08-21T09:22:46;6.70;;;2.80;;
69754;SDS011;57023;52.218;5.158;2023-08-21T09:25:18;6.03;;;2.60;;
69754;SDS011;57023;52.218;5.158;2023-08-21T09:27:43;6.73;;;2.60;;
69754;SDS011;57023;52.218;5.158;2023-08-21T09:30:09;9.40;;;2.70;;
69754;SDS011;57023;52.218;5.158;2023-08-21T09:32:56;7.75;;;2.92;;
69754;SDS011;57023;52.218;5.158;2023-08-21T09:35:25;7.72;;;2.83;;
69754;SDS011;57023;52.218;5.158;2023-08-21T09:37:51;8.55;;;2.60;;
69754;SDS011;57023;52.218;5.158;2023-08-21T09:40:19;8.35;;;2.80;;
69754;SDS011;57023;52.218;5.158;2023-08-21T09:42:46;9.52;;;2.60;;
69754;SDS011;57023;52.218;5.158;2023-08-21T09:45:19;9.32;;;2.70;;
69754;SDS011;57023;52.218;5.158;2023-08-21T09:47:45;6.60;;;2.80;;
69754;SDS011;57023;52.218;5.158;2023-08-21T09:50:10;8.37;;;2.77;;
69754;SDS011;57023;52.218;5.158;2023-08-21T09:52:36;10.63;;;2.97;;
69754;SDS011;57023;52.218;5.158;2023-08-21T09:55:02;7.03;;;2.90;;
69754;SDS011;57023;52.218;5.158;2023-08-21T09:57:29;7.28;;;2.67;;
69754;SDS011;57023;52.218;5.158;2023-08-21T09:59:54;7.30;;;2.75;;
69754;SDS011;57023;52.218;5.158;2023-08-21T10:02:20;9.77;;;3.35;;
69754;SDS011;57023;52.218;5.158;2023-08-21T10:04:46;6.80;;;2.65;;
69754;SDS011;57023;52.218;5.158;2023-08-21T10:07:13;7.22;;;2.38;;
69754;SDS011;57023;52.218;5.158;2023-08-21T10:09:41;8.30;;;2.85;;
69754;SDS011;57023;52.218;5.158;2023-08-21T10:12:08;8.07;;;3.10;;
69754;SDS011;57023;52.218;5.158;2023-08-21T10:14:34;7.53;;;3.67;;
69754;SDS011;57023;52.218;5.158;2023-08-21T10:17:00;8.77;;;3.40;;
69754;SDS011;57023;52.218;5.158;2023-08-21T10:19:30;9.27;;;3.37;;
69754;SDS011;57023;52.218;5.158;2023-08-21T10:21:56;6.72;;;3.65;;
69754;SDS011;57023;52.218;5.158;2023-08-21T10:24:27;8.90;;;3.30;;
69754;SDS011;57023;52.218;5.158;2023-08-21T10:26:59;9.82;;;3.13;;
69754;SDS011;57023;52.218;5.158;2023-08-21T10:29:25;9.07;;;3.27;;
69754;SDS011;57023;52.218;5.158;2023-08-21T10:32:03;8.13;;;2.85;;
69754;SDS011;57023;52.218;5.158;2023-08-21T10:34:34;7.55;;;3.03;;
69754;SDS011;57023;52.218;5.158;2023-08-21T10:39:37;6.03;;;2.50;;
69754;SDS011;57023;52.218;5.158;2023-08-21T10:42:08;9.85;;;2.90;;
69754;SDS011;57023;52.218;5.158;2023-08-21T10:49:40;7.45;;;2.70;;
69754;SDS011;57023;52.218;5.158;2023-08-21T10:52:05;5.32;;;2.38;;
69754;SDS011;57023;52.218;5.158;2023-08-21T10:54:45;6.78;;;2.40;;
69754;SDS011;57023;52.218;5.158;2023-08-21T10:57:12;5.32;;;2.55;;
69754;SDS011;57023;52.218;5.158;2023-08-21T10:59:37;7.00;;;2.60;;
69754;SDS011;57023;52.218;5.158;2023-08-21T11:02:03;6.20;;;2.50;;
69754;SDS011;57023;52.218;5.158;2023-08-21T11:04:28;6.43;;;2.25;;
69754;SDS011;57023;52.218;5.158;2023-08-21T11:06:53;5.43;;;2.37;;
69754;SDS011;57023;52.218;5.158;2023-08-21T11:09:19;8.77;;;2.83;;
69754;SDS011;57023;52.218;5.158;2023-08-21T11:11:44;6.77;;;2.67;;
69754;SDS011;57023;52.218;5.158;2023-08-21T11:14:10;8.17;;;2.87;;
69754;SDS011;57023;52.218;5.158;2023-08-21T11:16:35;9.00;;;2.80;;
69754;SDS011;57023;52.218;5.158;2023-08-21T11:19:03;7.33;;;2.53;;
69754;SDS011;57023;52.218;5.158;2023-08-21T11:21:30;6.97;;;2.58;;
69754;SDS011;57023;52.218;5.158;2023-08-21T11:23:55;7.50;;;2.50;;
69754;SDS011;57023;52.218;5.158;2023-08-21T11:26:21;6.93;;;2.57;;
69754;SDS011;57023;52.218;5.158;2023-08-21T11:28:46;7.17;;;2.50;;
69754;SDS011;57023;52.218;5.158;2023-08-21T11:33:37;6.30;;;2.47;;
69754;SDS011;57023;52.218;5.158;2023-08-21T11:36:06;7.20;;;2.78;;
69754;SDS011;57023;52.218;5.158;2023-08-21T11:38:31;7.00;;;2.92;;
69754;SDS011;57023;52.218;5.158;2023-08-21T11:40:57;5.43;;;2.57;;
69754;SDS011;57023;52.218;5.158;2023-08-21T11:43:40;5.53;;;2.88;;
69754;SDS011;57023;52.218;5.158;2023-08-21T11:46:07;7.32;;;2.97;;
69754;SDS011;57023;52.218;5.158;2023-08-21T11:48:33;5.13;;;2.72;;
69754;SDS011;57023;52.218;5.158;2023-08-21T11:51:00;9.07;;;2.80;;
69754;SDS011;57023;52.218;5.158;2023-08-21T11:53:32;7.10;;;2.78;;
69754;SDS011;57023;52.218;5.158;2023-08-21T11:56:00;6.47;;;2.75;;
69754;SDS011;57023;52.218;5.158;2023-08-21T11:58:28;7.40;;;2.57;;
69754;SDS011;57023;52.218;5.158;2023-08-21T12:00:54;6.57;;;2.67;;
69754;SDS011;57023;52.218;5.158;2023-08-21T12:03:19;7.88;;;2.70;;
69754;SDS011;57023;52.218;5.158;2023-08-21T12:05:45;7.63;;;2.77;;
69754;SDS011;57023;52.218;5.158;2023-08-21T12:08:10;4.93;;;2.53;;
69754;SDS011;57023;52.218;5.158;2023-08-21T12:13:01;6.88;;;2.90;;
69754;SDS011;57023;52.218;5.158;2023-08-21T12:17:51;8.13;;;2.83;;
69754;SDS011;57023;52.218;5.158;2023-08-21T12:25:07;5.97;;;2.30;;
69754;SDS011;57023;52.218;5.158;2023-08-21T12:27:34;5.72;;;2.17;;
69754;SDS011;57023;52.218;5.158;2023-08-21T12:34:49;5.07;;;2.17;;
69754;SDS011;57023;52.218;5.158;2023-08-21T12:37:15;5.23;;;2.10;;
69754;SDS011;57023;52.218;5.158;2023-08-21T12:39:40;4.53;;;2.22;;
69754;SDS011;57023;52.218;5.158;2023-08-21T12:42:05;4.63;;;1.98;;
69754;SDS011;57023;52.218;5.158;2023-08-21T12:44:32;5.05;;;2.08;;
69754;SDS011;57023;52.218;5.158;2023-08-21T12:46:58;5.05;;;1.88;;
69754;SDS011;57023;52.218;5.158;2023-08-21T12:54:14;4.50;;;1.93;;
69754;SDS011;57023;52.218;5.158;2023-08-21T12:56:39;4.93;;;2.20;;
69754;SDS011;57023;52.218;5.158;2023-08-21T12:59:04;5.82;;;2.30;;
69754;SDS011;57023;52.218;5.158;2023-08-21T13:01:30;5.32;;;2.30;;
69754;SDS011;57023;52.218;5.158;2023-08-21T13:03:58;5.88;;;2.15;;
69754;SDS011;57023;52.218;5.158;2023-08-21T13:06:23;7.78;;;2.42;;
69754;SDS011;57023;52.218;5.158;2023-08-21T13:08:49;5.23;;;2.33;;
69754;SDS011;57023;52.218;5.158;2023-08-21T13:11:14;5.20;;;2.00;;
69754;SDS011;57023;52.218;5.158;2023-08-21T13:13:40;4.70;;;2.13;;
69754;SDS011;57023;52.218;5.158;2023-08-21T13:16:05;5.15;;;2.20;;
69754;SDS011;57023;52.218;5.158;2023-08-21T13:18:31;4.53;;;2.30;;
69754;SDS011;57023;52.218;5.158;2023-08-21T13:20:56;5.22;;;2.30;;
69754;SDS011;57023;52.218;5.158;2023-08-21T13:23:22;3.58;;;1.90;;
69754;SDS011;57023;52.218;5.158;2023-08-21T13:25:47;5.03;;;2.10;;
69754;SDS011;57023;52.218;5.158;2023-08-21T13:28:13;5.47;;;2.20;;
69754;SDS011;57023;52.218;5.158;2023-08-21T13:30:38;5.50;;;2.05;;
69754;SDS011;57023;52.218;5.158;2023-08-21T13:33:03;5.43;;;2.20;;
69754;SDS011;57023;52.218;5.158;2023-08-21T13:35:29;4.30;;;1.95;;
69754;SDS011;57023;52.218;5.158;2023-08-21T13:37:55;6.32;;;1.92;;
69754;SDS011;57023;52.218;5.158;2023-08-21T13:40:20;6.60;;;1.92;;
69754;SDS011;57023;52.218;5.158;2023-08-21T13:42:46;4.38;;;2.05;;
69754;SDS011;57023;52.218;5.158;2023-08-21T13:45:13;4.32;;;2.03;;
69754;SDS011;57023;52.218;5.158;2023-08-21T13:47:40;4.75;;;2.20;;
69754;SDS011;57023;52.218;5.158;2023-08-21T13:50:06;6.22;;;2.15;;
69754;SDS011;57023;52.218;5.158;2023-08-21T13:52:35;5.07;;;2.00;;
69754;SDS011;57023;52.218;5.158;2023-08-21T13:55:01;4.60;;;1.80;;
69754;SDS011;57023;52.218;5.158;2023-08-21T13:57:27;4.68;;;1.90;;
69754;SDS011;57023;52.218;5.158;2023-08-21T13:59:53;6.32;;;2.08;;
69754;SDS011;57023;52.218;5.158;2023-08-21T14:02:18;4.57;;;2.05;;
69754;SDS011;57023;52.218;5.158;2023-08-21T14:04:45;5.13;;;1.88;;
69754;SDS011;57023;52.218;5.158;2023-08-21T14:07:11;5.65;;;2.03;;
69754;SDS011;57023;52.218;5.158;2023-08-21T14:09:36;4.63;;;1.90;;
69754;SDS011;57023;52.218;5.158;2023-08-21T14:12:02;4.38;;;1.98;;
69754;SDS011;57023;52.218;5.158;2023-08-21T14:14:28;3.78;;;1.80;;
69754;SDS011;57023;52.218;5.158;2023-08-21T14:16:53;5.72;;;2.25;;
69754;SDS011;57023;52.218;5.158;2023-08-21T14:19:18;3.85;;;2.00;;
69754;SDS011;57023;52.218;5.158;2023-08-21T14:21:44;2.73;;;1.80;;
69754;SDS011;57023;52.218;5.158;2023-08-21T14:24:09;5.93;;;2.13;;
69754;SDS011;57023;52.218;5.158;2023-08-21T14:26:34;4.90;;;2.00;;
69754;SDS011;57023;52.218;5.158;2023-08-21T14:29:00;4.17;;;1.97;;
69754;SDS011;57023;52.218;5.158;2023-08-21T14:31:25;5.50;;;2.13;;
69754;SDS011;57023;52.218;5.158;2023-08-21T14:33:52;5.03;;;2.20;;
69754;SDS011;57023;52.218;5.158;2023-08-21T14:36:17;6.47;;;2.47;;
69754;SDS011;57023;52.218;5.158;2023-08-21T14:38:42;4.88;;;2.00;;
69754;SDS011;57023;52.218;5.158;2023-08-21T14:41:11;4.60;;;2.00;;
69754;SDS011;57023;52.218;5.158;2023-08-21T14:43:37;4.82;;;2.20;;
69754;SDS011;57023;52.218;5.158;2023-08-21T14:46:05;5.78;;;2.10;;
69754;SDS011;57023;52.218;5.158;2023-08-21T14:48:30;7.90;;;2.50;;
69754;SDS011;57023;52.218;5.158;2023-08-21T14:50:56;3.85;;;2.10;;
69754;SDS011;57023;52.218;5.158;2023-08-21T14:53:21;6.33;;;2.20;;
69754;SDS011;57023;52.218;5.158;2023-08-21T14:55:46;5.10;;;2.17;;
69754;SDS011;57023;52.218;5.158;2023-08-21T14:58:12;4.18;;;1.90;;
69754;SDS011;57023;52.218;5.158;2023-08-21T15:00:37;4.85;;;2.03;;
69754;SDS011;57023;52.218;5.158;2023-08-21T15:03:02;4.78;;;2.00;;
69754;SDS011;57023;52.218;5.158;2023-08-21T15:05:28;5.63;;;2.30;;
69754;SDS011;57023;52.218;5.158;2023-08-21T15:10:20;5.72;;;2.30;;
69754;SDS011;57023;52.218;5.158;2023-08-21T15:15:11;5.30;;;2.20;;
69754;SDS011;57023;52.218;5.158;2023-08-21T15:17:36;6.10;;;2.27;;
69754;SDS011;57023;52.218;5.158;2023-08-21T15:20:01;6.87;;;2.33;;